Time;durP1;ratioP1;P1;durP2;ratioP2;P2;SDS_P1;SDS_P2;PMS_P1;PMS_P2;Temp;Humidity;BMP_temperature;BMP_pressure;BME280_temperature;BME280_humidity;BME280_pressure;Samples;Min_cycle;Max_cycle;Signal;HPM_P1;HPM_P2
2023/06/18 00:02:21;;;;;;;7.77;7.07;;;;;;;14.91;100.00;96189.38;5010683;28;102306;-58
2023/06/18 00:04:48;;;;;;;7.97;7.27;;;;;;;14.88;100.00;96187.25;5010947;28;102806;-58
2023/06/18 00:07:15;;;;;;;7.70;7.00;;;;;;;14.83;100.00;96184.63;5013118;28;102666;-59
2023/06/18 00:09:41;;;;;;;8.20;7.33;;;;;;;14.70;100.00;96188.75;4992413;28;105566;-58
2023/06/18 00:12:10;;;;;;;8.13;7.43;;;;;;;14.47;100.00;96183.31;5009561;28;102714;-58
2023/06/18 00:14:39;;;;;;;7.47;6.77;;;;;;;14.46;100.00;96195.91;5010170;28;101911;-58
2023/06/18 00:17:06;;;;;;;8.37;7.50;;;;;;;14.25;100.00;96190.97;4992165;28;105697;-58
2023/06/18 00:19:33;;;;;;;7.90;7.10;;;;;;;14.14;100.00;96190.22;4991761;28;105436;-58
2023/06/18 00:22:00;;;;;;;8.60;7.50;;;;;;;14.27;100.00;96189.63;4992268;28;102243;-58
2023/06/18 00:24:27;;;;;;;7.97;7.17;;;;;;;14.31;100.00;96189.84;4992310;28;105594;-58
2023/06/18 00:26:54;;;;;;;7.70;7.00;;;;;;;14.27;100.00;96197.63;4991716;28;105598;-58
2023/06/18 00:29:21;;;;;;;8.80;7.90;;;;;;;14.32;100.00;96191.44;4995689;28;102026;-58
2023/06/18 00:31:49;;;;;;;8.83;8.03;;;;;;;14.40;100.00;96191.66;4991475;28;105859;-59
2023/06/18 00:34:17;;;;;;;10.00;9.00;;;;;;;14.42;100.00;96194.88;4992448;28;101910;-59
2023/06/18 00:36:50;;;;;;;9.00;8.20;;;;;;;14.31;100.00;96193.34;5010267;28;102633;-59
2023/06/18 00:39:17;;;;;;;9.37;8.57;;;;;;;14.37;100.00;96192.22;4991468;28;105242;-58
2023/06/18 00:41:46;;;;;;;9.37;8.57;;;;;;;14.42;100.00;96199.41;5010224;28;101861;-58
2023/06/18 00:44:13;;;;;;;8.70;7.80;;;;;;;14.38;100.00;96196.50;4991984;28;105851;-59
2023/06/18 00:46:46;;;;;;;9.03;8.23;;;;;;;14.43;100.00;96201.00;4991214;28;105129;-58
2023/06/18 00:49:15;;;;;;;9.53;8.70;;;;;;;14.41;100.00;96203.16;4991882;28;101874;-59
2023/06/18 00:51:44;;;;;;;8.93;8.13;;;;;;;14.40;100.00;96205.03;4994675;28;105689;-59
2023/06/18 00:54:13;;;;;;;9.37;8.47;;;;;;;14.35;100.00;96198.94;5010231;28;101960;-58
2023/06/18 00:56:50;;;;;;;8.27;7.47;;;;;;;14.32;100.00;96196.78;4991906;28;105849;-58
2023/06/18 00:59:21;;;;;;;8.13;7.43;;;;;;;14.33;100.00;96206.44;5009426;28;103106;-58
2023/06/18 01:01:48;;;;;;;8.53;7.77;;;;;;;14.38;100.00;96193.03;4991830;28;101900;-58
2023/06/18 01:04:17;;;;;;;9.73;8.60;;;;;;;14.46;100.00;96192.44;5009839;28;102420;-58
2023/06/18 01:06:43;;;;;;;9.33;8.27;;;;;;;14.33;100.00;96185.03;4990473;28;105530;-59
2023/06/18 01:09:17;;;;;;;8.40;7.70;;;;;;;14.32;100.00;96186.09;4991752;28;101877;-58
2023/06/18 01:11:45;;;;;;;8.13;7.43;;;;;;;14.11;100.00;96187.28;4991665;28;105164;-58
2023/06/18 01:14:14;;;;;;;9.13;8.20;;;;;;;14.03;100.00;96175.31;5012330;28;102508;-58
2023/06/18 01:16:46;;;;;;;8.80;8.10;;;;;;;13.91;100.00;96180.16;4991736;28;105511;-58
2023/06/18 01:19:40;;;;;;;8.80;8.00;;;;;;;13.93;100.00;96186.06;4990918;28;105345;-59
2023/06/18 01:22:21;;;;;;;8.20;7.50;;;;;;;13.95;100.00;96183.13;4991508;28;102098;-58
2023/06/18 01:24:51;;;;;;;8.07;7.37;;;;;;;13.95;100.00;96183.13;4991430;28;105237;-59
2023/06/18 01:27:21;;;;;;;9.60;8.63;;;;;;;14.00;100.00;96175.06;4990860;28;105962;-58
2023/06/18 01:29:49;;;;;;;8.87;7.97;;;;;;;13.99;100.00;96181.47;4991141;28;101856;-58
2023/06/18 01:32:16;;;;;;;8.70;8.00;;;;;;;13.96;100.00;96174.00;4991479;28;105369;-58
2023/06/18 01:34:45;;;;;;;8.80;8.00;;;;;;;13.96;100.00;96174.00;5008877;28;103133;-58
2023/06/18 01:37:24;;;;;;;9.37;8.57;;;;;;;13.88;100.00;96171.91;4994840;28;102170;-58
2023/06/18 01:39:58;;;;;;;9.60;8.60;;;;;;;13.88;100.00;96170.03;4990684;28;105756;-59
2023/06/18 01:42:28;;;;;;;9.00;8.10;;;;;;;13.81;100.00;96164.22;5009485;28;102062;-58
2023/06/18 01:45:04;;;;;;;9.37;8.53;;;;;;;13.86;100.00;96166.03;4991369;28;105522;-59
2023/06/18 01:47:33;;;;;;;8.80;8.03;;;;;;;13.84;100.00;96165.53;4990601;28;104103;-58
2023/06/18 01:50:02;;;;;;;8.57;7.77;;;;;;;13.72;100.00;96173.88;5009546;28;101970;-58
2023/06/18 01:52:33;;;;;;;8.23;7.53;;;;;;;13.68;100.00;96167.47;4991270;28;104139;-58
2023/06/18 01:55:03;;;;;;;8.70;7.90;;;;;;;13.67;100.00;96170.41;4990510;28;105763;-58
2023/06/18 01:57:31;;;;;;;10.10;8.50;;;;;;;13.59;100.00;96173.66;4994448;28;102269;-58
2023/06/18 01:59:58;;;;;;;8.70;7.90;;;;;;;13.53;100.00;96166.75;4990381;28;105444;-58
2023/06/18 02:02:25;;;;;;;9.20;8.33;;;;;;;13.46;100.00;96172.38;5009200;28;101804;-58
2023/06/18 02:04:52;;;;;;;9.20;8.40;;;;;;;13.40;100.00;96170.00;4990821;28;105692;-58
2023/06/18 02:07:20;;;;;;;8.63;7.83;;;;;;;13.40;100.00;96170.00;4989486;28;105472;-58
2023/06/18 02:09:47;;;;;;;8.77;8.07;;;;;;;13.40;100.00;96168.13;4991055;28;102156;-58
2023/06/18 02:12:14;;;;;;;8.57;7.77;;;;;;;13.23;100.00;96174.84;4990764;28;105665;-59
2023/06/18 02:14:41;;;;;;;9.80;8.80;;;;;;;13.29;100.00;96171.91;5008139;28;102559;-58
2023/06/18 02:17:09;;;;;;;8.50;7.80;;;;;;;13.27;100.00;96178.59;4990805;28;102067;-58
2023/06/18 02:19:36;;;;;;;8.90;7.97;;;;;;;13.22;100.00;96182.09;4993582;28;105700;-58
2023/06/18 02:22:04;;;;;;;9.50;8.60;;;;;;;13.21;100.00;96188.50;4990744;28;102120;-58
2023/06/18 02:24:34;;;;;;;9.50;8.57;;;;;;;13.07;100.00;96182.13;4990798;28;105814;-58
2023/06/18 02:27:01;;;;;;;9.93;9.03;;;;;;;13.12;100.00;96178.63;4990042;28;105422;-58
2023/06/18 02:29:27;;;;;;;10.63;9.63;;;;;;;13.13;100.00;96180.25;4990811;28;102088;-58
2023/06/18 02:31:54;;;;;;;10.87;9.87;;;;;;;13.23;100.00;96174.84;4990664;28;105634;-58
2023/06/18 02:34:27;;;;;;;10.27;9.37;;;;;;;13.17;100.00;96179.41;4991543;28;105349;-58
2023/06/18 02:36:55;;;;;;;10.67;9.67;;;;;;;13.24;100.00;96181.81;4994222;28;102292;-59
2023/06/18 02:39:23;;;;;;;10.07;9.10;;;;;;;13.27;100.00;96173.25;4993958;28;105725;-58
2023/06/18 02:41:51;;;;;;;10.13;9.13;;;;;;;13.30;100.00;96165.50;5014708;28;103010;-58
2023/06/18 02:44:19;;;;;;;11.10;10.00;;;;;;;13.33;100.00;96180.16;4993907;28;105301;-59
2023/06/18 02:46:45;;;;;;;9.77;8.83;;;;;;;13.20;100.00;96183.41;5010605;28;102854;-58
2023/06/18 02:49:12;;;;;;;10.67;9.57;;;;;;;13.17;100.00;96187.44;4993918;28;102037;-58
2023/06/18 02:51:39;;;;;;;10.40;9.17;;;;;;;13.20;100.00;96186.88;5012054;28;102925;-58
2023/06/18 02:54:08;;;;;;;9.50;8.70;;;;;;;13.16;100.00;96185.03;4993469;28;103991;-58
2023/06/18 02:56:34;;;;;;;10.23;8.57;;;;;;;13.18;100.00;96180.19;5011756;28;102168;-58
2023/06/18 02:59:04;;;;;;;9.57;8.67;;;;;;;13.18;100.00;96185.53;4993873;28;106387;-59
2023/06/18 03:01:32;;;;;;;9.43;8.53;;;;;;;13.16;100.00;96183.16;4993002;28;105126;-58
2023/06/18 03:03:59;;;;;;;9.47;8.57;;;;;;;13.02;100.00;96181.34;4997177;28;101889;-58
2023/06/18 03:06:32;;;;;;;9.70;8.70;;;;;;;13.09;100.00;96181.84;4992583;28;105466;-59
2023/06/18 03:09:01;;;;;;;8.53;7.73;;;;;;;12.95;100.00;96186.09;5012098;28;101724;-58
2023/06/18 03:11:28;;;;;;;9.33;8.53;;;;;;;12.79;100.00;96187.19;4993590;28;104852;-58
2023/06/18 03:13:56;;;;;;;9.60;8.70;;;;;;;12.85;100.00;96188.78;4992915;28;105120;-58
2023/06/18 03:16:26;;;;;;;9.13;8.33;;;;;;;12.69;100.00;96184.53;4993578;28;102224;-58
2023/06/18 03:18:56;;;;;;;9.63;8.33;;;;;;;12.67;100.00;96184.00;4993574;28;105246;-59
2023/06/18 03:21:24;;;;;;;9.60;8.60;;;;;;;12.71;100.00;96177.06;4992742;28;105027;-59
2023/06/18 03:23:54;;;;;;;9.17;8.27;;;;;;;12.70;100.00;96170.16;4993148;28;101911;-58
2023/06/18 03:26:22;;;;;;;8.90;8.10;;;;;;;12.70;100.00;96172.81;4995929;28;105421;-58
2023/06/18 03:28:50;;;;;;;8.93;8.23;;;;;;;12.62;100.00;96176.00;4993201;28;101971;-58
2023/06/18 03:31:17;;;;;;;8.93;8.03;;;;;;;12.61;100.00;96177.06;4993439;28;104991;-58
2023/06/18 03:33:46;;;;;;;9.77;8.80;;;;;;;12.64;100.00;96180.00;4992727;28;105460;-59
2023/06/18 03:36:17;;;;;;;9.47;8.67;;;;;;;12.54;100.00;96187.22;4993341;28;102167;-59
2023/06/18 03:38:46;;;;;;;10.37;9.33;;;;;;;12.54;100.00;96190.69;4993115;28;105778;-58
2023/06/18 03:41:14;;;;;;;9.60;8.70;;;;;;;12.66;100.00;96195.75;4992528;28;105957;-58
2023/06/18 03:43:41;;;;;;;10.50;9.30;;;;;;;12.73;100.00;96197.09;4992801;28;102208;-58
2023/06/18 03:46:08;;;;;;;10.70;9.70;;;;;;;12.76;100.00;96193.88;4991986;28;105913;-58
2023/06/18 03:48:36;;;;;;;9.40;8.60;;;;;;;12.82;100.00;96189.34;4995713;28;102254;-58
2023/06/18 03:51:05;;;;;;;11.20;9.77;;;;;;;12.87;100.00;96189.34;4992833;28;105349;-59
2023/06/18 03:53:37;;;;;;;10.13;9.30;;;;;;;12.88;100.00;96194.41;4992054;28;105563;-58
2023/06/18 03:56:04;;;;;;;9.37;8.47;;;;;;;12.87;100.00;96190.13;4992858;28;101989;-59
2023/06/18 03:58:31;;;;;;;10.63;9.73;;;;;;;12.95;100.00;96186.09;4992804;28;105233;-59
2023/06/18 04:00:58;;;;;;;10.13;9.23;;;;;;;13.02;100.00;96189.34;4992181;28;105280;-58
2023/06/18 04:03:26;;;;;;;9.60;8.73;;;;;;;13.11;100.00;96191.19;4992600;28;101919;-58
2023/06/18 04:05:54;;;;;;;9.50;8.60;;;;;;;13.16;100.00;96187.69;4992568;28;105518;-58
2023/06/18 04:08:22;;;;;;;10.23;9.23;;;;;;;13.22;100.00;96198.09;4995120;28;105985;-58
2023/06/18 04:10:50;;;;;;;9.57;8.67;;;;;;;13.26;100.00;96201.03;4992642;28;105700;-59
2023/06/18 04:13:18;;;;;;;10.30;9.30;;;;;;;13.33;100.00;96198.84;4992078;28;105785;-58
2023/06/18 04:15:45;;;;;;;10.17;9.27;;;;;;;13.07;100.00;96203.47;4992122;28;101927;-58
2023/06/18 04:18:14;;;;;;;10.80;9.67;;;;;;;13.23;100.00;96206.91;4992712;28;104970;-59
2023/06/18 04:20:41;;;;;;;10.77;9.03;;;;;;;13.37;100.00;96205.25;4991837;28;106561;-58
2023/06/18 04:23:09;;;;;;;9.53;8.67;;;;;;;13.52;100.00;96208.69;4992189;28;102347;-58
2023/06/18 04:25:38;;;;;;;9.93;9.03;;;;;;;13.62;100.00;96203.31;4992493;28;103903;-59
2023/06/18 04:28:05;;;;;;;9.57;8.60;;;;;;;13.72;100.00;96210.47;5009934;28;102813;-58
2023/06/18 04:30:33;;;;;;;10.17;9.17;;;;;;;13.87;100.00;96213.06;4995855;28;101907;-59
2023/06/18 04:33:01;;;;;;;9.27;8.47;;;;;;;13.95;100.00;96207.16;4991643;28;104724;-58
2023/06/18 04:35:28;;;;;;;10.57;9.53;;;;;;;14.08;100.00;96209.22;5010458;28;101928;-58
2023/06/18 04:37:55;;;;;;;9.50;8.60;;;;;;;14.24;100.00;96203.56;4992161;28;105290;-58
2023/06/18 04:40:23;;;;;;;9.80;8.80;;;;;;;14.38;100.00;96201.06;4991596;28;104378;-58
2023/06/18 04:42:51;;;;;;;10.13;9.13;;;;;;;14.47;100.00;96202.84;4992193;28;101969;-58
2023/06/18 04:45:26;;;;;;;9.53;8.57;;;;;;;14.57;100.00;96201.97;4992217;28;105397;-59
2023/06/18 04:47:54;;;;;;;10.20;9.30;;;;;;;14.69;100.00;96202.41;4991597;28;105197;-59
2023/06/18 04:50:22;;;;;;;9.63;8.73;;;;;;;14.81;100.00;96209.00;5010169;28;101975;-58
2023/06/18 04:52:51;;;;;;;9.23;8.43;;;;;;;14.98;100.00;96204.03;4994612;28;104890;-59
2023/06/18 04:55:20;;;;;;;9.57;8.67;;;;;;;15.24;100.00;96205.38;4991878;28;101934;-58
2023/06/18 04:57:47;;;;;;;9.50;8.67;;;;;;;15.39;100.00;96199.91;4991534;28;105310;-58
2023/06/18 05:00:19;;;;;;;10.17;9.20;;;;;;;15.49;100.00;96204.34;4991282;28;105471;-58
2023/06/18 05:02:48;;;;;;;9.90;9.00;;;;;;;15.60;100.00;96203.91;5009969;28;102107;-58
2023/06/18 05:05:15;;;;;;;10.20;9.07;;;;;;;15.75;100.00;96209.09;4991776;28;105369;-58
2023/06/18 05:07:43;;;;;;;11.17;10.13;;;;;;;15.83;100.00;96213.84;4990604;28;105388;-59
2023/06/18 05:10:12;;;;;;;13.13;11.83;;;;;;;15.78;100.00;96208.53;4990757;28;102250;-59
2023/06/18 05:12:39;;;;;;;11.07;10.03;;;;;;;15.82;100.00;96219.50;4990524;28;104996;-59
2023/06/18 05:15:07;;;;;;;10.23;9.23;;;;;;;16.00;100.00;96216.84;4993132;28;105538;-59
2023/06/18 05:17:37;;;;;;;10.33;9.23;;;;;;;15.99;100.00;96214.44;4991779;28;105332;-58
2023/06/18 05:20:08;;;;;;;9.60;8.70;;;;;;;16.06;100.00;96220.25;4990806;28;105473;-58
2023/06/18 05:22:36;;;;;;;9.37;8.57;;;;;;;15.98;100.00;96219.00;4991614;28;101934;-58
2023/06/18 05:25:04;;;;;;;9.73;8.83;;;;;;;15.88;100.00;96218.34;4991527;28;106535;-58
2023/06/18 05:27:33;;;;;;;9.37;8.47;;;;;;;16.01;100.00;96221.13;4990749;28;105539;-59
2023/06/18 05:30:00;;;;;;;9.03;8.17;;;;;;;16.29;100.00;96222.09;4991422;28;101910;-59
2023/06/18 05:32:27;;;;;;;9.73;8.83;;;;;;;16.53;100.00;96220.16;4991308;28;105490;-58
2023/06/18 05:34:55;;;;;;;9.00;8.10;;;;;;;16.45;100.00;96218.13;4990586;28;105712;-58
2023/06/18 05:37:23;;;;;;;9.37;8.33;;;;;;;16.67;100.00;96226.41;4994782;28;102107;-58
2023/06/18 05:39:52;;;;;;;8.33;7.63;;;;;;;16.73;100.00;96220.63;4990523;28;105789;-58
2023/06/18 05:42:21;;;;;;;9.00;8.10;;;;;;;16.50;100.00;96218.84;4991300;28;101934;-58
2023/06/18 05:44:48;;;;;;;8.67;7.87;;;;;;;16.80;100.00;96222.94;5009267;28;102434;-59
2023/06/18 05:47:15;;;;;;;9.27;8.40;;;;;;;17.06;100.00;96224.13;4990483;28;105395;-58
2023/06/18 05:49:43;;;;;;;9.23;8.30;;;;;;;17.34;100.00;96228.47;4991141;28;101985;-58
2023/06/18 05:52:11;;;;;;;8.87;8.07;;;;;;;17.51;100.00;96226.84;4991180;28;105540;-58
2023/06/18 05:54:40;;;;;;;10.23;7.90;;;;;;;17.59;100.00;96220.75;4990573;28;105127;-59
2023/06/18 05:57:07;;;;;;;8.63;7.83;;;;;;;17.59;100.00;96228.00;4994542;28;102268;-59
2023/06/18 05:59:33;;;;;;;7.83;7.13;;;;;;;17.75;100.00;96226.63;4990446;28;103726;-58
2023/06/18 06:02:08;;;;;;;10.37;8.03;;;;;;;17.90;100.00;96219.06;4991141;28;101815;-59
2023/06/18 06:04:35;;;;;;;8.17;7.23;;;;;;;18.02;100.00;96216.66;4990683;28;105297;-58
2023/06/18 06:07:02;;;;;;;8.20;7.40;;;;;;;17.97;100.00;96221.34;4990180;28;105810;-58
2023/06/18 06:09:30;;;;;;;8.47;7.67;;;;;;;18.00;100.00;96223.44;4992560;28;101951;-58
2023/06/18 06:11:57;;;;;;;10.47;7.80;;;;;;;17.85;100.00;96227.25;4994503;28;105320;-58
2023/06/18 06:14:24;;;;;;;8.10;7.40;;;;;;;17.99;100.00;96221.84;4993752;28;105863;-58
2023/06/18 06:16:57;;;;;;;8.83;7.63;;;;;;;18.14;100.00;96219.63;4994322;28;101934;-58
2023/06/18 06:19:24;;;;;;;7.13;6.53;;;;;;;18.40;100.00;96226.09;5015433;28;102418;-58
2023/06/18 06:21:50;;;;;;;8.27;7.57;;;;;;;18.47;100.00;96209.53;4994168;28;101960;-58
2023/06/18 06:24:18;;;;;;;7.87;7.17;;;;;;;18.69;100.00;96215.72;4994106;28;105472;-58
2023/06/18 06:26:47;;;;;;;8.23;7.47;;;;;;;18.98;100.00;96208.03;4993437;28;105456;-59
2023/06/18 06:29:14;;;;;;;7.70;7.00;;;;;;;19.02;100.00;96214.38;4993959;28;101880;-58
2023/06/18 06:31:41;;;;;;;7.80;7.10;;;;;;;19.03;100.00;96215.94;4993974;28;104964;-58
2023/06/18 06:34:08;;;;;;;8.63;6.90;;;;;;;19.28;100.00;96209.97;4993527;28;106519;-59
2023/06/18 06:36:35;;;;;;;7.60;6.90;;;;;;;19.59;100.00;96218.03;5012382;28;101912;-59
2023/06/18 06:39:03;;;;;;;7.73;6.97;;;;;;;19.53;100.00;96213.91;4993976;28;105150;-58
2023/06/18 06:41:30;;;;;;;8.27;6.93;;;;;;;19.88;100.00;96221.00;5015054;28;102521;-59
2023/06/18 06:44:05;;;;;;;7.57;6.87;;;;;;;19.93;100.00;96223.56;4993955;28;105124;-58
2023/06/18 06:46:50;;;;;;;7.70;6.80;;;;;;;20.11;100.00;96226.03;4993382;28;106030;-59
2023/06/18 06:49:37;;;;;;;7.30;6.60;;;;;;;20.27;100.00;96208.28;4989705;28;101948;-58
2023/06/18 06:52:34;;;;;;;7.47;6.70;;;;;;;20.27;100.00;96210.97;4998162;28;103897;-58
2023/06/18 06:55:01;;;;;;;7.83;7.13;;;;;;;20.08;100.00;96215.88;4993169;28;105750;-58
2023/06/18 06:57:28;;;;;;;7.30;6.53;;;;;;;20.29;100.00;96213.38;5011958;28;101854;-58
2023/06/18 06:59:57;;;;;;;8.90;7.67;;;;;;;20.67;100.00;96217.06;4993601;28;105261;-58
2023/06/18 07:02:24;;;;;;;7.23;6.53;;;;;;;20.85;100.00;96214.03;4992732;28;105845;-58
2023/06/18 07:04:51;;;;;;;7.33;6.63;;;;;;;21.05;100.00;96212.59;4996971;28;102342;-58
2023/06/18 07:07:18;;;;;;;7.50;6.80;;;;;;;21.24;100.00;96218.44;5010889;28;103005;-59
2023/06/18 07:09:45;;;;;;;9.50;8.60;;;;;;;21.25;100.00;96222.75;5011697;28;101866;-59
2023/06/18 07:12:12;;;;;;;7.67;6.07;;;;;;;21.40;100.00;96219.53;4993461;28;105494;-59
2023/06/18 07:14:39;;;;;;;7.30;6.40;;;;;;;21.59;100.00;96223.44;5010905;28;103083;-58
2023/06/18 07:17:08;;;;;;;10.43;9.07;;;;;;;21.68;100.00;96223.47;5011474;28;101867;-58
2023/06/18 07:19:35;;;;;;;7.23;6.43;;;;;;;21.62;97.61;96217.41;5011472;28;102515;-59
2023/06/18 07:22:01;;;;;;;7.07;6.20;;;;;;;21.74;90.71;96219.47;4992745;28;105396;-58
2023/06/18 07:24:29;;;;;;;7.47;6.77;;;;;;;21.33;91.48;96214.63;4993143;28;101856;-59
2023/06/18 07:26:56;;;;;;;9.13;7.30;;;;;;;21.71;93.47;96220.09;4996098;28;105905;-59
2023/06/18 07:29:23;;;;;;;7.33;6.67;;;;;;;22.13;90.35;96213.69;5011179;28;101780;-59
2023/06/18 07:31:50;;;;;;;7.53;6.83;;;;;;;22.40;99.62;96221.34;5011461;28;102416;-59
2023/06/18 07:34:18;;;;;;;9.57;8.27;;;;;;;22.51;92.62;96217.16;4992434;28;105924;-59
2023/06/18 07:36:45;;;;;;;8.30;7.50;;;;;;;22.45;82.24;96215.75;4993143;28;102016;-59
2023/06/18 07:39:11;;;;;;;13.30;12.00;;;;;;;22.55;100.00;96224.28;5011408;28;102729;-59
2023/06/18 07:41:38;;;;;;;7.13;6.47;;;;;;;22.65;74.56;96223.09;4991606;28;105977;-58
2023/06/18 07:44:05;;;;;;;7.37;6.67;;;;;;;21.88;70.87;96226.25;5011311;28;102246;-59
2023/06/18 07:46:33;;;;;;;8.03;6.77;;;;;;;22.40;84.99;96215.91;4992798;28;105542;-58
2023/06/18 07:49:00;;;;;;;7.33;6.50;;;;;;;22.74;74.73;96218.41;4995857;28;105680;-58
2023/06/18 07:51:28;;;;;;;9.40;6.90;;;;;;;22.51;68.24;96209.00;4992787;28;105488;-58
2023/06/18 07:53:55;;;;;;;7.33;6.30;;;;;;;22.85;78.05;96209.53;5010386;28;102605;-58
2023/06/18 07:56:24;;;;;;;7.43;6.73;;;;;;;23.11;86.90;96210.06;4992844;28;101943;-59
2023/06/18 07:58:51;;;;;;;7.77;6.97;;;;;;;23.30;73.73;96207.69;5010928;28;102591;-59
2023/06/18 08:01:18;;;;;;;7.07;6.47;;;;;;;23.52;82.43;96210.00;4992049;28;105346;-58
2023/06/18 08:03:45;;;;;;;7.97;6.90;;;;;;;23.61;76.23;96201.78;4992598;28;102025;-58
2023/06/18 08:06:12;;;;;;;6.97;6.37;;;;;;;23.09;71.78;96200.69;5010899;28;102928;-59
2023/06/18 08:08:41;;;;;;;8.43;7.07;;;;;;;23.06;69.45;96199.44;5013336;28;102788;-59
2023/06/18 08:11:08;;;;;;;8.10;6.20;;;;;;;23.35;67.52;96203.97;5010786;28;102917;-59
2023/06/18 08:13:35;;;;;;;7.07;6.37;;;;;;;23.67;76.41;96200.41;4991829;28;105443;-58
2023/06/18 08:16:01;;;;;;;7.17;6.40;;;;;;;23.85;62.58;96199.06;5010669;28;102425;-58
2023/06/18 08:18:28;;;;;;;6.80;6.20;;;;;;;23.49;62.94;96204.47;4992623;28;105544;-59
2023/06/18 08:20:55;;;;;;;8.37;6.90;;;;;;;23.31;62.67;96197.63;4991951;28;105107;-58
2023/06/18 08:23:22;;;;;;;7.30;6.47;;;;;;;23.63;82.62;96202.22;5010620;28;102006;-59
2023/06/18 08:25:51;;;;;;;7.77;6.27;;;;;;;23.35;66.50;96209.41;4992266;28;105783;-58
2023/06/18 08:28:18;;;;;;;7.13;6.53;;;;;;;23.58;65.22;96205.94;4991859;28;105483;-59
2023/06/18 08:30:48;;;;;;;7.43;6.30;;;;;;;23.83;66.24;96202.16;4995737;28;102073;-59
2023/06/18 08:33:14;;;;;;;7.33;6.47;;;;;;;24.25;67.22;96200.78;4990982;28;105271;-58
2023/06/18 08:35:41;;;;;;;8.03;6.27;;;;;;;24.32;64.44;96200.22;4992419;28;102217;-58
2023/06/18 08:38:09;;;;;;;7.00;6.40;;;;;;;24.48;59.19;96195.66;4992307;28;105103;-59
2023/06/18 08:40:38;;;;;;;7.27;6.57;;;;;;;24.35;56.01;96199.56;4991665;28;105084;-59
2023/06/18 08:43:10;;;;;;;7.57;6.60;;;;;;;24.47;56.63;96196.81;4991883;28;101986;-59
2023/06/18 08:45:37;;;;;;;7.10;6.40;;;;;;;24.46;56.76;96195.22;4991901;28;105349;-58
2023/06/18 08:48:06;;;;;;;8.80;6.03;;;;;;;24.23;61.01;96196.81;4991463;28;105915;-59
2023/06/18 08:50:34;;;;;;;7.27;6.20;;;;;;;24.86;55.96;96191.41;4992110;28;101979;-59
2023/06/18 08:53:12;;;;;;;6.90;6.20;;;;;;;24.58;55.20;96192.50;4994868;28;105332;-59
2023/06/18 08:55:40;;;;;;;6.63;6.03;;;;;;;24.78;53.87;96192.34;4992118;28;101953;-59
2023/06/18 08:58:12;;;;;;;7.20;6.50;;;;;;;24.87;53.25;96192.19;5009932;28;102722;-59
2023/06/18 09:00:40;;;;;;;6.83;6.13;;;;;;;24.75;53.38;96189.50;4991415;28;105180;-59
2023/06/18 09:03:07;;;;;;;7.00;6.30;;;;;;;24.87;55.65;96189.47;4991811;28;102076;-59
2023/06/18 09:05:35;;;;;;;6.97;6.00;;;;;;;24.60;55.45;96190.22;5009898;28;102396;-59
2023/06/18 09:08:03;;;;;;;7.47;6.73;;;;;;;24.72;56.00;96192.91;4990995;28;105042;-59
2023/06/18 09:10:31;;;;;;;7.50;6.80;;;;;;;25.13;55.51;96187.09;4991770;28;101854;-59
2023/06/18 09:12:58;;;;;;;6.27;5.67;;;;;;;25.14;55.25;96191.41;4991554;28;105925;-59
2023/06/18 09:15:27;;;;;;;7.10;6.50;;;;;;;25.21;55.08;96183.41;4994212;28;105658;-59
2023/06/18 09:17:54;;;;;;;7.07;6.47;;;;;;;25.54;53.62;96186.66;4991546;28;105630;-59
2023/06/18 09:20:22;;;;;;;7.07;6.37;;;;;;;24.87;55.58;96184.84;5009124;28;102832;-59
2023/06/18 09:22:49;;;;;;;6.83;6.23;;;;;;;25.03;57.21;96187.59;4991701;28;101905;-58
2023/06/18 09:25:20;;;;;;;6.80;6.20;;;;;;;24.92;56.50;96183.78;5009648;28;102960;-59
2023/06/18 09:27:48;;;;;;;6.73;6.13;;;;;;;25.38;50.94;96188.56;4990753;28;105338;-58
2023/06/18 09:30:19;;;;;;;7.00;6.17;;;;;;;26.07;51.99;96186.88;4991464;28;101862;-58
2023/06/18 09:32:48;;;;;;;7.53;6.40;;;;;;;25.78;52.15;96191.97;4991441;28;105598;-58
2023/06/18 09:35:17;;;;;;;6.70;6.10;;;;;;;25.66;50.63;96189.31;4990679;28;105777;-59
2023/06/18 09:37:44;;;;;;;7.10;6.40;;;;;;;25.94;50.33;96193.56;5012991;28;101921;-59
2023/06/18 09:40:16;;;;;;;8.50;6.40;;;;;;;26.05;49.38;96194.59;5009099;28;102543;-60
2023/06/18 09:42:44;;;;;;;6.90;6.20;;;;;;;25.98;48.19;96190.91;5009536;28;101734;-59
2023/06/18 09:45:12;;;;;;;6.00;5.40;;;;;;;25.91;50.54;96193.47;5012271;28;103485;-60
2023/06/18 09:47:42;;;;;;;6.33;5.83;;;;;;;25.82;47.98;96187.41;5012333;28;103110;-59
2023/06/18 09:50:12;;;;;;;6.47;5.57;;;;;;;26.37;45.37;96184.47;4994715;28;101895;-60
2023/06/18 09:52:45;;;;;;;6.00;5.50;;;;;;;26.87;43.95;96184.41;4995105;28;105102;-59
2023/06/18 09:55:27;;;;;;;7.00;6.30;;;;;;;26.18;42.93;96176.22;4994021;28;105082;-59
2023/06/18 09:57:54;;;;;;;6.63;5.80;;;;;;;27.01;45.97;96169.09;5013016;28;101711;-59
2023/06/18 10:00:22;;;;;;;5.63;5.23;;;;;;;27.36;39.61;96174.47;5015672;28;102544;-59
2023/06/18 10:02:49;;;;;;;6.10;5.50;;;;;;;27.82;43.71;96168.72;4994680;28;102359;-59
2023/06/18 10:05:17;;;;;;;6.93;6.23;;;;;;;27.29;43.53;96164.22;4994604;28;105213;-61
2023/06/18 10:07:47;;;;;;;6.90;5.67;;;;;;;27.75;41.37;96162.28;5011408;28;102493;-61
2023/06/18 10:10:15;;;;;;;5.50;5.00;;;;;;;28.15;37.37;96157.09;4976748;28;102638;-60
2023/06/18 10:12:43;;;;;;;6.35;5.47;;;;;;;28.22;36.97;96157.22;4993260;28;105558;-60
2023/06/18 10:15:12;;;;;;;6.97;4.90;;;;;;;28.43;35.99;96158.34;4993023;28;105354;-60
2023/06/18 10:17:44;;;;;;;6.22;5.72;;;;;;;28.69;37.84;96154.78;4994259;28;101982;-60
2023/06/18 10:20:14;;;;;;;6.28;5.50;;;;;;;28.88;39.42;96160.13;4997013;28;105737;-60
2023/06/18 10:22:46;;;;;;;7.22;5.47;;;;;;;29.12;40.91;96157.72;4994340;28;101946;-59
2023/06/18 10:25:14;;;;;;;7.72;5.50;;;;;;;28.66;35.10;96150.06;4994095;28;103948;-61
2023/06/18 10:27:41;;;;;;;6.88;5.45;;;;;;;27.65;36.93;96150.03;4993618;28;105392;-61
2023/06/18 10:30:09;;;;;;;5.75;5.25;;;;;;;28.76;38.47;96143.94;4994365;28;102099;-60
2023/06/18 10:32:37;;;;;;;5.82;5.32;;;;;;;28.88;34.75;96149.94;4994032;28;105089;-60
2023/06/18 10:35:08;;;;;;;5.88;5.28;;;;;;;28.97;35.77;96144.22;4993324;28;105392;-61
2023/06/18 10:37:35;;;;;;;5.95;5.35;;;;;;;29.00;34.93;96140.75;4994230;28;102017;-61
2023/06/18 10:40:06;;;;;;;8.23;5.72;;;;;;;29.06;37.68;96144.72;4993654;28;105344;-60
2023/06/18 10:42:34;;;;;;;5.93;5.15;;;;;;;29.48;38.26;96142.44;4996830;28;105752;-60
2023/06/18 10:45:10;;;;;;;5.35;4.85;;;;;;;29.63;34.41;96133.19;5012007;28;102535;-60
2023/06/18 10:47:37;;;;;;;5.50;5.00;;;;;;;30.20;33.50;96132.50;4993364;28;105943;-60
2023/06/18 10:50:16;;;;;;;5.38;4.97;;;;;;;30.39;32.54;96134.97;5012078;28;102147;-60
2023/06/18 10:52:44;;;;;;;5.13;4.63;;;;;;;30.65;32.03;96140.22;5011880;28;102519;-60
2023/06/18 10:55:15;;;;;;;5.88;5.28;;;;;;;30.63;31.18;96131.59;4992588;28;105382;-60
2023/06/18 10:57:44;;;;;;;5.97;4.80;;;;;;;31.08;31.77;96133.75;5012022;28;101999;-60
2023/06/18 11:00:19;;;;;;;4.95;4.55;;;;;;;31.14;28.12;96129.47;5011624;28;102732;-60
2023/06/18 11:02:49;;;;;;;4.88;4.47;;;;;;;31.33;29.35;96120.91;5011369;28;103106;-60
2023/06/18 11:05:39;;;;;;;4.88;4.47;;;;;;;31.81;29.44;96113.94;5015027;28;101892;-60
2023/06/18 11:08:07;;;;;;;5.30;4.88;;;;;;;32.31;30.15;96115.50;4992406;28;105406;-60
2023/06/18 11:10:37;;;;;;;5.13;4.55;;;;;;;31.95;29.08;96117.47;4993555;28;102176;-60
2023/06/18 11:13:05;;;;;;;5.35;4.85;;;;;;;31.72;27.90;96116.25;5011667;28;102889;-60
2023/06/18 11:15:32;;;;;;;5.97;4.60;;;;;;;31.54;27.35;96104.47;5010945;28;102561;-60
2023/06/18 11:18:01;;;;;;;5.13;4.60;;;;;;;31.24;28.49;96101.25;4993510;28;102152;-60
2023/06/18 11:20:31;;;;;;;5.00;4.60;;;;;;;31.75;29.33;96110.78;4993318;28;105224;-60
2023/06/18 11:22:59;;;;;;;4.97;4.53;;;;;;;32.07;29.22;96099.75;4992672;28;105948;-60
2023/06/18 11:25:27;;;;;;;4.85;4.40;;;;;;;31.74;28.50;96097.41;4993237;28;101891;-60
2023/06/18 11:27:58;;;;;;;6.30;5.18;;;;;;;32.27;29.22;96100.94;4995881;28;105183;-60